Port Richmond — WDH2442 — position and weather

sailwx.info

Track history (hours):
 
Tides and Currents Weather Stations Pressure Air Temp Water Temp Dewpoint Dewpoint Depression Visibility Wind Speed Wind Dir Waves Ship Positions

Port Richmond

Owner: NEW YORK, CITY OF, BROOKLYN, NY. More information available from US FCC via Universal Licensing System and Coast Guard Vessel Documentation Center.

Last reported at 2018-Jun-20 20:55 UTC. Time now 2018-Jun-24 16:33 UTC.
Position N 40°47' W 073°56'.

Length 89 m; draft 5 m.

Type: Tanker. MMSI: 367597640.

Date/timePositionNaut miles runAvg speedWind from/ knotsBaromVisibWave heightAir tempDewpointWater temp
2018-Jun-20 20:55N 40°47' W 073°56'4 9.1
2018-Jun-20 20:31N 40°43' W 073°58'4 8.5
2018-Jun-20 20:00N 40°40' W 074°01'1 2.4
2018-Jun-20 19:30N 40°39' W 074°02'0 0.0
2018-Jun-20 19:00N 40°39' W 074°02'0 0.0
2018-Jun-20 18:30N 40°39' W 074°02'0 0.0
2018-Jun-20 18:00N 40°39' W 074°02'0 0.1
2018-Jun-20 17:30N 40°39' W 074°02'4 8.2
2018-Jun-20 17:01N 40°42' W 073°60'4 7.9
2018-Jun-20 16:31N 40°46' W 073°57'2 1.1
2018-Jun-20 14:26N 40°47' W 073°55'1 0.5
2018-Jun-20 11:37N 40°48' W 073°53'2 6.2
2018-Jun-20 11:21N 40°47' W 073°55'0 0.0
2018-Jun-20 09:09N 40°47' W 073°55'0 0.0
2018-Jun-20 08:47N 40°47' W 073°55'0 0.0
2018-Jun-19 19:13N 40°47' W 073°55'0 0.0
2018-Jun-19 18:55N 40°47' W 073°55'0 0.9
2018-Jun-19 18:30N 40°47' W 073°55'510.9
2018-Jun-19 18:00N 40°42' W 073°59'510.4
2018-Jun-19 17:30N 40°39' W 074°05'2 4.5
2018-Jun-19 17:01N 40°38' W 074°08'0 0.0
2018-Jun-19 16:30N 40°38' W 074°08'0 0.0
2018-Jun-19 16:00N 40°38' W 074°08'0 0.3
2018-Jun-19 15:30N 40°39' W 074°08'4 8.4
2018-Jun-19 15:01N 40°39' W 074°02'0 0.1
2018-Jun-19 14:31N 40°39' W 074°02'0 0.0
2018-Jun-19 14:00N 40°39' W 074°02'0 0.0
2018-Jun-19 13:30N 40°39' W 074°02'0 0.0
2018-Jun-19 13:01N 40°39' W 074°02'0 0.0
2018-Jun-19 12:30N 40°39' W 074°02'3 6.6
2018-Jun-19 12:00N 40°42' W 074°00'612.2
2018-Jun-19 11:30N 40°47' W 073°56'0 0.0
2018-Jun-18 21:58N 40°47' W 073°56'4 8.0
2018-Jun-18 21:31N 40°44' W 073°58'4 8.1
2018-Jun-18 21:01N 40°40' W 074°01'5 9.5
2018-Jun-18 20:30N 40°35' W 074°02'4 7.9
2018-Jun-18 20:00N 40°34' W 073°57'5 7.9
2018-Jun-18 19:25N 40°37' W 073°53'0 0.1
2018-Jun-18 17:04N 40°37' W 073°53'3 1.0
2018-Jun-18 14:10N 40°35' W 073°52'8 8.1
2018-Jun-18 13:10N 40°37' W 074°02'210.1
2018-Jun-18 13:00N 40°38' W 074°03'5 9.4
2018-Jun-18 12:30N 40°42' W 073°60'2 0.1
2018-Jun-17 17:01N 40°44' W 073°58'510.1
2018-Jun-17 16:30N 40°39' W 074°02'1 1.2
2018-Jun-17 16:00N 40°39' W 074°02'0 0.0
2018-Jun-17 15:31N 40°39' W 074°02'0 0.0
2018-Jun-17 15:00N 40°39' W 074°02'0 0.0
2018-Jun-17 14:31N 40°39' W 074°02'0 0.0
2018-Jun-17 14:01N 40°39' W 074°02'1 1.2
2018-Jun-17 13:30N 40°39' W 074°02'4 8.7
2018-Jun-17 13:00N 40°43' W 073°58'5 8.4
2018-Jun-17 12:25N 40°47' W 073°55'2 0.0
2018-Jun-15 20:42N 40°46' W 073°57'1 7.5
2018-Jun-15 20:30N 40°45' W 073°58'3 7.0
2018-Jun-15 20:01N 40°42' W 074°00'3 6.9
2018-Jun-15 19:30N 40°39' W 074°02'0 0.0
2018-Jun-15 19:00N 40°39' W 074°02'0 0.0
2018-Jun-15 18:31N 40°39' W 074°02'0 0.0
2018-Jun-15 18:01N 40°39' W 074°02'0 0.0
2018-Jun-15 17:31N 40°39' W 074°02'2 3.0
2018-Jun-15 17:00N 40°40' W 074°01'611.2
2018-Jun-15 16:31N 40°45' W 073°58'3 1.6
2018-Jun-15 14:26N 40°47' W 073°55'1 0.0
2018-Jun-14 20:29N 40°47' W 073°55'4 8.6
2018-Jun-14 20:00N 40°43' W 073°58'4 8.8
2018-Jun-14 19:30N 40°40' W 074°02'4 8.8
2018-Jun-14 19:00N 40°39' W 074°08'0 0.0
2018-Jun-14 18:30N 40°38' W 074°08'0 0.0
2018-Jun-14 18:00N 40°38' W 074°08'0 0.0
2018-Jun-14 17:30N 40°38' W 074°08'0 0.1
2018-Jun-14 17:00N 40°39' W 074°08'4 7.4
2018-Jun-14 16:31N 40°39' W 074°03'1 1.1
2018-Jun-14 16:01N 40°39' W 074°02'0 0.0
2018-Jun-14 15:31N 40°39' W 074°02'0 0.0
2018-Jun-14 15:01N 40°39' W 074°02'0 0.0
2018-Jun-14 14:31N 40°39' W 074°02'0 0.0
2018-Jun-14 14:00N 40°39' W 074°02'1 1.8
2018-Jun-14 13:31N 40°39' W 074°01'4 8.2
2018-Jun-14 13:01N 40°43' W 073°58'4 7.7
2018-Jun-14 12:29N 40°47' W 073°56'1 1.9
2018-Jun-14 11:52N 40°47' W 073°55'0 0.0
2018-Jun-14 11:28N 40°47' W 073°55'0 0.0
2018-Jun-14 10:54N 40°47' W 073°55'0 0.0
2018-Jun-14 10:30N 40°47' W 073°55'0 0.0
2018-Jun-14 10:00N 40°47' W 073°55'0 0.0
2018-Jun-14 09:22N 40°47' W 073°55'0 0.0
2018-Jun-14 08:16N 40°47' W 073°55'0 0.0
2018-Jun-14 07:52N 40°47' W 073°55'0 0.0
2018-Jun-13 22:35N 40°47' W 073°55'0 2.1
2018-Jun-13 22:31N 40°47' W 073°55'611.7
2018-Jun-13 22:01N 40°42' W 073°60'611.7
2018-Jun-13 21:30N 40°37' W 074°03'5 9.1
2018-Jun-13 21:00N 40°34' W 073°58'5 6.1
2018-Jun-13 20:13N 40°37' W 073°53'1 0.4
2018-Jun-13 17:44N 40°38' W 073°53'8 1.8
2018-Jun-13 13:35N 40°36' W 074°02'210.8
2018-Jun-13 13:24N 40°38' W 074°03'4 9.9
2018-Jun-13 13:01N 40°42' W 074°00'  
Track history (hours):
 
Tides and Currents Weather Stations Pressure Air Temp Water Temp Dewpoint Dewpoint Depression Visibility Wind Speed Wind Dir Waves Ship Positions

Port Richmond

Owner: NEW YORK, CITY OF, BROOKLYN, NY. More information available from US FCC via Universal Licensing System and Coast Guard Vessel Documentation Center.

Last reported at 2018-Jun-20 20:55 UTC. Time now 2018-Jun-24 16:33 UTC.
Position N 40°47' W 073°56'.

Length 89 m; draft 5 m.

Type: Tanker. MMSI: 367597640.

Date/timePositionNaut miles runAvg speedWind from/ knotsBaromVisibWave heightAir tempDewpointWater temp
2018-Jun-20 20:55N 40°47' W 073°56'4 9.1
2018-Jun-20 20:31N 40°43' W 073°58'4 8.5
2018-Jun-20 20:00N 40°40' W 074°01'1 2.4
2018-Jun-20 19:30N 40°39' W 074°02'0 0.0
2018-Jun-20 19:00N 40°39' W 074°02'0 0.0
2018-Jun-20 18:30N 40°39' W 074°02'0 0.0
2018-Jun-20 18:00N 40°39' W 074°02'0 0.1
2018-Jun-20 17:30N 40°39' W 074°02'4 8.2
2018-Jun-20 17:01N 40°42' W 073°60'4 7.9
2018-Jun-20 16:31N 40°46' W 073°57'2 1.1
2018-Jun-20 14:26N 40°47' W 073°55'1 0.5
2018-Jun-20 11:37N 40°48' W 073°53'2 6.2
2018-Jun-20 11:21N 40°47' W 073°55'0 0.0
2018-Jun-20 09:09N 40°47' W 073°55'0 0.0
2018-Jun-20 08:47N 40°47' W 073°55'0 0.0
2018-Jun-19 19:13N 40°47' W 073°55'0 0.0
2018-Jun-19 18:55N 40°47' W 073°55'0 0.9
2018-Jun-19 18:30N 40°47' W 073°55'510.9
2018-Jun-19 18:00N 40°42' W 073°59'510.4
2018-Jun-19 17:30N 40°39' W 074°05'2 4.5
2018-Jun-19 17:01N 40°38' W 074°08'0 0.0
2018-Jun-19 16:30N 40°38' W 074°08'0 0.0
2018-Jun-19 16:00N 40°38' W 074°08'0 0.3
2018-Jun-19 15:30N 40°39' W 074°08'4 8.4
2018-Jun-19 15:01N 40°39' W 074°02'0 0.1
2018-Jun-19 14:31N 40°39' W 074°02'0 0.0
2018-Jun-19 14:00N 40°39' W 074°02'0 0.0
2018-Jun-19 13:30N 40°39' W 074°02'0 0.0
2018-Jun-19 13:01N 40°39' W 074°02'0 0.0
2018-Jun-19 12:30N 40°39' W 074°02'3 6.6
2018-Jun-19 12:00N 40°42' W 074°00'612.2
2018-Jun-19 11:30N 40°47' W 073°56'0 0.0
2018-Jun-18 21:58N 40°47' W 073°56'4 8.0
2018-Jun-18 21:31N 40°44' W 073°58'4 8.1
2018-Jun-18 21:01N 40°40' W 074°01'5 9.5
2018-Jun-18 20:30N 40°35' W 074°02'4 7.9
2018-Jun-18 20:00N 40°34' W 073°57'5 7.9
2018-Jun-18 19:25N 40°37' W 073°53'0 0.1
2018-Jun-18 17:04N 40°37' W 073°53'3 1.0
2018-Jun-18 14:10N 40°35' W 073°52'8 8.1
2018-Jun-18 13:10N 40°37' W 074°02'210.1
2018-Jun-18 13:00N 40°38' W 074°03'5 9.4
2018-Jun-18 12:30N 40°42' W 073°60'2 0.1
2018-Jun-17 17:01N 40°44' W 073°58'510.1
2018-Jun-17 16:30N 40°39' W 074°02'1 1.2
2018-Jun-17 16:00N 40°39' W 074°02'0 0.0
2018-Jun-17 15:31N 40°39' W 074°02'0 0.0
2018-Jun-17 15:00N 40°39' W 074°02'0 0.0
2018-Jun-17 14:31N 40°39' W 074°02'0 0.0
2018-Jun-17 14:01N 40°39' W 074°02'1 1.2
2018-Jun-17 13:30N 40°39' W 074°02'4 8.7
2018-Jun-17 13:00N 40°43' W 073°58'5 8.4
2018-Jun-17 12:25N 40°47' W 073°55'2 0.0
2018-Jun-15 20:42N 40°46' W 073°57'1 7.5
2018-Jun-15 20:30N 40°45' W 073°58'3 7.0
2018-Jun-15 20:01N 40°42' W 074°00'3 6.9
2018-Jun-15 19:30N 40°39' W 074°02'0 0.0
2018-Jun-15 19:00N 40°39' W 074°02'0 0.0
2018-Jun-15 18:31N 40°39' W 074°02'0 0.0
2018-Jun-15 18:01N 40°39' W 074°02'0 0.0
2018-Jun-15 17:31N 40°39' W 074°02'2 3.0
2018-Jun-15 17:00N 40°40' W 074°01'611.2
2018-Jun-15 16:31N 40°45' W 073°58'3 1.6
2018-Jun-15 14:26N 40°47' W 073°55'1 0.0
2018-Jun-14 20:29N 40°47' W 073°55'4 8.6
2018-Jun-14 20:00N 40°43' W 073°58'4 8.8
2018-Jun-14 19:30N 40°40' W 074°02'4 8.8
2018-Jun-14 19:00N 40°39' W 074°08'0 0.0
2018-Jun-14 18:30N 40°38' W 074°08'0 0.0
2018-Jun-14 18:00N 40°38' W 074°08'0 0.0
2018-Jun-14 17:30N 40°38' W 074°08'0 0.1
2018-Jun-14 17:00N 40°39' W 074°08'4 7.4
2018-Jun-14 16:31N 40°39' W 074°03'1 1.1
2018-Jun-14 16:01N 40°39' W 074°02'0 0.0
2018-Jun-14 15:31N 40°39' W 074°02'0 0.0
2018-Jun-14 15:01N 40°39' W 074°02'0 0.0
2018-Jun-14 14:31N 40°39' W 074°02'0 0.0
2018-Jun-14 14:00N 40°39' W 074°02'1 1.8
2018-Jun-14 13:31N 40°39' W 074°01'4 8.2
2018-Jun-14 13:01N 40°43' W 073°58'4 7.7
2018-Jun-14 12:29N 40°47' W 073°56'1 1.9
2018-Jun-14 11:52N 40°47' W 073°55'0 0.0
2018-Jun-14 11:28N 40°47' W 073°55'0 0.0
2018-Jun-14 10:54N 40°47' W 073°55'0 0.0
2018-Jun-14 10:30N 40°47' W 073°55'0 0.0
2018-Jun-14 10:00N 40°47' W 073°55'0 0.0
2018-Jun-14 09:22N 40°47' W 073°55'0 0.0
2018-Jun-14 08:16N 40°47' W 073°55'0 0.0
2018-Jun-14 07:52N 40°47' W 073°55'0 0.0
2018-Jun-13 22:35N 40°47' W 073°55'0 2.1
2018-Jun-13 22:31N 40°47' W 073°55'611.7
2018-Jun-13 22:01N 40°42' W 073°60'611.7
2018-Jun-13 21:30N 40°37' W 074°03'5 9.1
2018-Jun-13 21:00N 40°34' W 073°58'5 6.1
2018-Jun-13 20:13N 40°37' W 073°53'1 0.4
2018-Jun-13 17:44N 40°38' W 073°53'8 1.8
2018-Jun-13 13:35N 40°36' W 074°02'210.8
2018-Jun-13 13:24N 40°38' W 074°03'4 9.9
2018-Jun-13 13:01N 40°42' W 074°00'  

Dump ship's entire track history